sensor_id;sensor_type;location;lat;lon;timestamp;P1;durP1;ratioP1;P2;durP2;ratioP2
24485;SDS011;13449;49.374;8.584;2023-07-20T00:01:29;2.97;;;1.40;;
24485;SDS011;13449;49.374;8.584;2023-07-20T00:03:56;3.72;;;1.10;;
24485;SDS011;13449;49.374;8.584;2023-07-20T00:06:23;3.10;;;1.20;;
24485;SDS011;13449;49.374;8.584;2023-07-20T00:08:51;1.75;;;1.00;;
24485;SDS011;13449;49.374;8.584;2023-07-20T00:11:18;6.80;;;1.30;;
24485;SDS011;13449;49.374;8.584;2023-07-20T00:13:44;2.53;;;1.30;;
24485;SDS011;13449;49.374;8.584;2023-07-20T00:16:11;1.50;;;1.02;;
24485;SDS011;13449;49.374;8.584;2023-07-20T00:18:38;5.13;;;1.40;;
24485;SDS011;13449;49.374;8.584;2023-07-20T00:21:04;3.03;;;1.10;;
24485;SDS011;13449;49.374;8.584;2023-07-20T00:23:35;2.70;;;1.52;;
24485;SDS011;13449;49.374;8.584;2023-07-20T00:26:02;4.65;;;1.27;;
24485;SDS011;13449;49.374;8.584;2023-07-20T00:28:28;2.13;;;1.35;;
24485;SDS011;13449;49.374;8.584;2023-07-20T00:30:55;1.15;;;1.05;;
24485;SDS011;13449;49.374;8.584;2023-07-20T00:33:25;6.88;;;1.45;;
24485;SDS011;13449;49.374;8.584;2023-07-20T00:35:54;1.25;;;1.10;;
24485;SDS011;13449;49.374;8.584;2023-07-20T00:38:21;1.40;;;1.10;;
24485;SDS011;13449;49.374;8.584;2023-07-20T00:40:47;3.15;;;1.42;;
24485;SDS011;13449;49.374;8.584;2023-07-20T00:43:17;1.98;;;1.10;;
24485;SDS011;13449;49.374;8.584;2023-07-20T00:45:43;3.45;;;1.40;;
24485;SDS011;13449;49.374;8.584;2023-07-20T00:48:10;1.88;;;1.38;;
24485;SDS011;13449;49.374;8.584;2023-07-20T00:50:38;2.08;;;1.38;;
24485;SDS011;13449;49.374;8.584;2023-07-20T00:53:06;2.15;;;1.88;;
24485;SDS011;13449;49.374;8.584;2023-07-20T00:55:33;10.95;;;1.33;;
24485;SDS011;13449;49.374;8.584;2023-07-20T00:58:00;1.95;;;1.30;;
24485;SDS011;13449;49.374;8.584;2023-07-20T01:00:27;2.83;;;1.63;;
24485;SDS011;13449;49.374;8.584;2023-07-20T01:02:54;3.22;;;1.25;;
24485;SDS011;13449;49.374;8.584;2023-07-20T01:05:21;2.25;;;1.20;;
24485;SDS011;13449;49.374;8.584;2023-07-20T01:07:55;3.00;;;1.48;;
24485;SDS011;13449;49.374;8.584;2023-07-20T01:10:36;2.10;;;1.00;;
24485;SDS011;13449;49.374;8.584;2023-07-20T01:13:09;5.47;;;1.88;;
24485;SDS011;13449;49.374;8.584;2023-07-20T01:15:37;3.72;;;1.17;;
24485;SDS011;13449;49.374;8.584;2023-07-20T01:18:04;3.42;;;1.45;;
24485;SDS011;13449;49.374;8.584;2023-07-20T01:20:31;3.25;;;1.38;;
24485;SDS011;13449;49.374;8.584;2023-07-20T01:23:20;5.38;;;1.17;;
24485;SDS011;13449;49.374;8.584;2023-07-20T01:25:57;2.85;;;1.27;;
24485;SDS011;13449;49.374;8.584;2023-07-20T01:28:44;1.48;;;1.17;;
24485;SDS011;13449;49.374;8.584;2023-07-20T01:31:21;1.42;;;1.05;;
24485;SDS011;13449;49.374;8.584;2023-07-20T01:33:54;1.63;;;1.23;;
24485;SDS011;13449;49.374;8.584;2023-07-20T01:36:23;4.03;;;1.30;;
24485;SDS011;13449;49.374;8.584;2023-07-20T01:38:52;4.43;;;1.33;;
24485;SDS011;13449;49.374;8.584;2023-07-20T01:41:20;2.25;;;1.20;;
24485;SDS011;13449;49.374;8.584;2023-07-20T01:43:47;5.20;;;1.02;;
24485;SDS011;13449;49.374;8.584;2023-07-20T01:46:13;1.58;;;1.20;;
24485;SDS011;13449;49.374;8.584;2023-07-20T01:48:40;2.90;;;1.10;;
24485;SDS011;13449;49.374;8.584;2023-07-20T01:51:09;2.63;;;1.05;;
24485;SDS011;13449;49.374;8.584;2023-07-20T01:53:36;2.03;;;1.27;;
24485;SDS011;13449;49.374;8.584;2023-07-20T01:56:02;6.18;;;1.00;;
24485;SDS011;13449;49.374;8.584;2023-07-20T01:58:34;2.45;;;1.17;;
24485;SDS011;13449;49.374;8.584;2023-07-20T02:01:03;2.38;;;1.35;;
24485;SDS011;13449;49.374;8.584;2023-07-20T02:03:32;2.60;;;1.50;;
24485;SDS011;13449;49.374;8.584;2023-07-20T02:05:58;4.45;;;1.35;;
24485;SDS011;13449;49.374;8.584;2023-07-20T02:08:25;2.55;;;1.30;;
24485;SDS011;13449;49.374;8.584;2023-07-20T02:10:51;3.63;;;1.30;;
24485;SDS011;13449;49.374;8.584;2023-07-20T02:13:18;3.05;;;1.63;;
24485;SDS011;13449;49.374;8.584;2023-07-20T02:15:47;4.03;;;1.52;;
24485;SDS011;13449;49.374;8.584;2023-07-20T02:18:15;2.72;;;1.23;;
24485;SDS011;13449;49.374;8.584;2023-07-20T02:20:42;1.40;;;1.20;;
24485;SDS011;13449;49.374;8.584;2023-07-20T02:23:09;3.83;;;1.50;;
24485;SDS011;13449;49.374;8.584;2023-07-20T02:25:36;6.40;;;1.30;;
24485;SDS011;13449;49.374;8.584;2023-07-20T02:28:03;1.40;;;0.88;;
24485;SDS011;13449;49.374;8.584;2023-07-20T02:30:32;2.45;;;1.25;;
24485;SDS011;13449;49.374;8.584;2023-07-20T02:33:01;4.43;;;1.30;;
24485;SDS011;13449;49.374;8.584;2023-07-20T02:35:32;3.33;;;1.65;;
24485;SDS011;13449;49.374;8.584;2023-07-20T02:37:58;2.83;;;1.23;;
24485;SDS011;13449;49.374;8.584;2023-07-20T02:40:25;1.92;;;1.20;;
24485;SDS011;13449;49.374;8.584;2023-07-20T02:42:52;4.57;;;1.42;;
24485;SDS011;13449;49.374;8.584;2023-07-20T02:45:18;3.35;;;1.33;;
24485;SDS011;13449;49.374;8.584;2023-07-20T02:47:50;3.47;;;1.45;;
24485;SDS011;13449;49.374;8.584;2023-07-20T02:50:16;3.22;;;1.60;;
24485;SDS011;13449;49.374;8.584;2023-07-20T02:52:43;2.45;;;1.27;;
24485;SDS011;13449;49.374;8.584;2023-07-20T02:55:09;6.93;;;1.55;;
24485;SDS011;13449;49.374;8.584;2023-07-20T02:57:36;5.18;;;1.40;;
24485;SDS011;13449;49.374;8.584;2023-07-20T03:00:03;4.75;;;2.05;;
24485;SDS011;13449;49.374;8.584;2023-07-20T03:02:32;4.70;;;1.15;;
24485;SDS011;13449;49.374;8.584;2023-07-20T03:04:58;2.97;;;1.63;;
24485;SDS011;13449;49.374;8.584;2023-07-20T03:07:27;4.93;;;1.50;;
24485;SDS011;13449;49.374;8.584;2023-07-20T03:09:56;1.83;;;1.00;;
24485;SDS011;13449;49.374;8.584;2023-07-20T03:12:28;2.05;;;1.30;;
24485;SDS011;13449;49.374;8.584;2023-07-20T03:14:55;3.75;;;1.75;;
24485;SDS011;13449;49.374;8.584;2023-07-20T03:17:23;1.90;;;1.30;;
24485;SDS011;13449;49.374;8.584;2023-07-20T03:19:50;2.40;;;1.38;;
24485;SDS011;13449;49.374;8.584;2023-07-20T03:22:16;2.33;;;1.23;;
24485;SDS011;13449;49.374;8.584;2023-07-20T03:24:43;2.08;;;1.20;;
24485;SDS011;13449;49.374;8.584;2023-07-20T03:27:09;2.50;;;1.52;;
24485;SDS011;13449;49.374;8.584;2023-07-20T03:29:36;6.47;;;1.25;;
24485;SDS011;13449;49.374;8.584;2023-07-20T03:32:03;3.88;;;2.28;;
24485;SDS011;13449;49.374;8.584;2023-07-20T03:34:33;2.70;;;1.50;;
24485;SDS011;13449;49.374;8.584;2023-07-20T03:36:59;3.25;;;1.83;;
24485;SDS011;13449;49.374;8.584;2023-07-20T03:39:26;5.10;;;1.80;;
24485;SDS011;13449;49.374;8.584;2023-07-20T03:41:55;2.72;;;1.25;;
24485;SDS011;13449;49.374;8.584;2023-07-20T03:44:24;2.55;;;1.67;;
24485;SDS011;13449;49.374;8.584;2023-07-20T03:46:51;4.68;;;1.85;;
24485;SDS011;13449;49.374;8.584;2023-07-20T03:49:20;3.83;;;1.50;;
24485;SDS011;13449;49.374;8.584;2023-07-20T03:51:46;3.38;;;1.90;;
24485;SDS011;13449;49.374;8.584;2023-07-20T03:54:13;5.28;;;1.35;;
24485;SDS011;13449;49.374;8.584;2023-07-20T03:56:42;3.08;;;1.70;;
24485;SDS011;13449;49.374;8.584;2023-07-20T03:59:11;4.07;;;1.58;;
24485;SDS011;13449;49.374;8.584;2023-07-20T04:01:38;3.22;;;1.20;;
24485;SDS011;13449;49.374;8.584;2023-07-20T04:06:51;6.10;;;2.25;;
24485;SDS011;13449;49.374;8.584;2023-07-20T04:09:20;2.75;;;1.40;;
24485;SDS011;13449;49.374;8.584;2023-07-20T04:11:47;9.25;;;1.58;;
24485;SDS011;13449;49.374;8.584;2023-07-20T04:14:13;2.03;;;1.63;;
24485;SDS011;13449;49.374;8.584;2023-07-20T04:16:40;4.93;;;1.95;;
24485;SDS011;13449;49.374;8.584;2023-07-20T04:19:06;2.33;;;1.55;;
24485;SDS011;13449;49.374;8.584;2023-07-20T04:21:39;2.78;;;1.80;;
24485;SDS011;13449;49.374;8.584;2023-07-20T04:24:07;2.50;;;1.73;;
24485;SDS011;13449;49.374;8.584;2023-07-20T04:26:34;5.45;;;1.48;;
24485;SDS011;13449;49.374;8.584;2023-07-20T04:29:03;5.22;;;1.83;;
24485;SDS011;13449;49.374;8.584;2023-07-20T04:31:30;4.47;;;1.95;;
24485;SDS011;13449;49.374;8.584;2023-07-20T04:33:59;3.22;;;1.67;;
24485;SDS011;13449;49.374;8.584;2023-07-20T04:36:26;5.60;;;2.35;;
24485;SDS011;13449;49.374;8.584;2023-07-20T04:38:52;4.90;;;1.90;;
24485;SDS011;13449;49.374;8.584;2023-07-20T04:41:19;3.20;;;2.47;;
24485;SDS011;13449;49.374;8.584;2023-07-20T04:43:46;5.32;;;1.98;;
24485;SDS011;13449;49.374;8.584;2023-07-20T04:46:13;1.63;;;1.48;;
24485;SDS011;13449;49.374;8.584;2023-07-20T04:48:42;4.90;;;2.15;;
24485;SDS011;13449;49.374;8.584;2023-07-20T04:51:09;3.58;;;1.70;;
24485;SDS011;13449;49.374;8.584;2023-07-20T04:53:36;6.70;;;1.58;;
24485;SDS011;13449;49.374;8.584;2023-07-20T04:56:03;6.40;;;2.05;;
24485;SDS011;13449;49.374;8.584;2023-07-20T04:58:29;3.05;;;2.28;;
24485;SDS011;13449;49.374;8.584;2023-07-20T05:00:56;3.67;;;2.22;;
24485;SDS011;13449;49.374;8.584;2023-07-20T05:03:23;2.88;;;2.45;;
24485;SDS011;13449;49.374;8.584;2023-07-20T05:05:49;3.78;;;2.20;;
24485;SDS011;13449;49.374;8.584;2023-07-20T05:08:16;5.20;;;2.40;;
24485;SDS011;13449;49.374;8.584;2023-07-20T05:10:43;5.20;;;2.78;;
24485;SDS011;13449;49.374;8.584;2023-07-20T05:13:10;7.18;;;2.60;;
24485;SDS011;13449;49.374;8.584;2023-07-20T05:15:36;4.75;;;2.78;;
24485;SDS011;13449;49.374;8.584;2023-07-20T05:18:03;2.15;;;1.85;;
24485;SDS011;13449;49.374;8.584;2023-07-20T05:20:29;3.20;;;2.22;;
24485;SDS011;13449;49.374;8.584;2023-07-20T05:22:58;2.38;;;1.45;;
24485;SDS011;13449;49.374;8.584;2023-07-20T05:25:25;3.40;;;2.33;;
24485;SDS011;13449;49.374;8.584;2023-07-20T05:27:54;3.20;;;2.05;;
24485;SDS011;13449;49.374;8.584;2023-07-20T05:30:21;2.47;;;1.77;;
24485;SDS011;13449;49.374;8.584;2023-07-20T05:32:48;10.82;;;2.30;;
24485;SDS011;13449;49.374;8.584;2023-07-20T05:35:17;7.00;;;2.35;;
24485;SDS011;13449;49.374;8.584;2023-07-20T05:37:46;6.22;;;2.55;;
24485;SDS011;13449;49.374;8.584;2023-07-20T05:40:14;6.15;;;2.15;;
24485;SDS011;13449;49.374;8.584;2023-07-20T05:42:45;3.00;;;1.73;;
24485;SDS011;13449;49.374;8.584;2023-07-20T05:45:12;3.55;;;1.73;;
24485;SDS011;13449;49.374;8.584;2023-07-20T05:47:39;4.60;;;2.30;;
24485;SDS011;13449;49.374;8.584;2023-07-20T05:50:06;4.07;;;1.70;;
24485;SDS011;13449;49.374;8.584;2023-07-20T05:52:35;4.07;;;2.38;;
24485;SDS011;13449;49.374;8.584;2023-07-20T05:55:01;3.05;;;1.70;;
24485;SDS011;13449;49.374;8.584;2023-07-20T05:57:29;6.47;;;1.70;;
24485;SDS011;13449;49.374;8.584;2023-07-20T05:59:55;5.40;;;2.30;;
24485;SDS011;13449;49.374;8.584;2023-07-20T06:02:22;4.60;;;2.10;;
24485;SDS011;13449;49.374;8.584;2023-07-20T06:04:51;3.63;;;2.28;;
24485;SDS011;13449;49.374;8.584;2023-07-20T06:07:18;8.25;;;2.45;;
24485;SDS011;13449;49.374;8.584;2023-07-20T06:09:44;4.05;;;2.60;;
24485;SDS011;13449;49.374;8.584;2023-07-20T06:12:11;7.95;;;2.30;;
24485;SDS011;13449;49.374;8.584;2023-07-20T06:14:37;7.78;;;2.45;;
24485;SDS011;13449;49.374;8.584;2023-07-20T06:17:08;8.70;;;3.53;;
24485;SDS011;13449;49.374;8.584;2023-07-20T06:19:38;2.92;;;2.28;;
24485;SDS011;13449;49.374;8.584;2023-07-20T06:22:04;2.30;;;1.90;;
24485;SDS011;13449;49.374;8.584;2023-07-20T06:24:31;9.25;;;2.75;;
24485;SDS011;13449;49.374;8.584;2023-07-20T06:27:00;10.27;;;3.50;;
24485;SDS011;13449;49.374;8.584;2023-07-20T06:29:26;5.38;;;2.45;;
24485;SDS011;13449;49.374;8.584;2023-07-20T06:31:53;9.13;;;2.50;;
24485;SDS011;13449;49.374;8.584;2023-07-20T06:34:19;3.67;;;2.47;;
24485;SDS011;13449;49.374;8.584;2023-07-20T06:36:50;3.03;;;2.38;;
24485;SDS011;13449;49.374;8.584;2023-07-20T06:39:16;3.15;;;1.90;;
24485;SDS011;13449;49.374;8.584;2023-07-20T06:41:45;5.75;;;2.42;;
24485;SDS011;13449;49.374;8.584;2023-07-20T06:44:12;4.70;;;2.60;;
24485;SDS011;13449;49.374;8.584;2023-07-20T06:46:38;6.63;;;2.40;;
24485;SDS011;13449;49.374;8.584;2023-07-20T06:49:07;16.50;;;3.03;;
24485;SDS011;13449;49.374;8.584;2023-07-20T06:51:37;3.97;;;2.08;;
24485;SDS011;13449;49.374;8.584;2023-07-20T06:54:03;8.07;;;2.50;;
24485;SDS011;13449;49.374;8.584;2023-07-20T06:56:30;6.22;;;1.92;;
24485;SDS011;13449;49.374;8.584;2023-07-20T06:58:59;10.23;;;2.15;;
24485;SDS011;13449;49.374;8.584;2023-07-20T07:01:25;7.05;;;3.08;;
24485;SDS011;13449;49.374;8.584;2023-07-20T07:03:54;8.18;;;2.30;;
24485;SDS011;13449;49.374;8.584;2023-07-20T07:06:24;2.47;;;1.80;;
24485;SDS011;13449;49.374;8.584;2023-07-20T07:08:52;4.15;;;2.38;;
24485;SDS011;13449;49.374;8.584;2023-07-20T07:11:21;3.38;;;1.40;;
24485;SDS011;13449;49.374;8.584;2023-07-20T07:13:51;4.90;;;1.60;;
24485;SDS011;13449;49.374;8.584;2023-07-20T07:16:23;5.22;;;1.95;;
24485;SDS011;13449;49.374;8.584;2023-07-20T07:18:50;5.57;;;1.50;;
24485;SDS011;13449;49.374;8.584;2023-07-20T07:21:17;1.67;;;1.25;;
24485;SDS011;13449;49.374;8.584;2023-07-20T07:23:45;6.57;;;1.85;;
24485;SDS011;13449;49.374;8.584;2023-07-20T07:26:13;2.72;;;1.67;;
24485;SDS011;13449;49.374;8.584;2023-07-20T07:28:42;2.95;;;1.30;;
24485;SDS011;13449;49.374;8.584;2023-07-20T07:31:09;4.00;;;1.20;;
24485;SDS011;13449;49.374;8.584;2023-07-20T07:33:35;3.88;;;1.50;;
24485;SDS011;13449;49.374;8.584;2023-07-20T07:36:02;5.22;;;1.73;;
24485;SDS011;13449;49.374;8.584;2023-07-20T07:38:31;2.17;;;1.02;;
24485;SDS011;13449;49.374;8.584;2023-07-20T07:41:17;4.53;;;1.33;;
24485;SDS011;13449;49.374;8.584;2023-07-20T07:43:44;9.77;;;1.30;;
24485;SDS011;13449;49.374;8.584;2023-07-20T07:46:13;1.77;;;1.23;;
24485;SDS011;13449;49.374;8.584;2023-07-20T07:48:40;5.55;;;1.95;;
24485;SDS011;13449;49.374;8.584;2023-07-20T07:51:07;4.20;;;1.73;;
24485;SDS011;13449;49.374;8.584;2023-07-20T07:53:36;5.28;;;1.50;;
24485;SDS011;13449;49.374;8.584;2023-07-20T07:56:04;1.33;;;0.75;;
24485;SDS011;13449;49.374;8.584;2023-07-20T07:58:33;7.70;;;1.33;;
24485;SDS011;13449;49.374;8.584;2023-07-20T08:00:59;2.78;;;1.20;;
24485;SDS011;13449;49.374;8.584;2023-07-20T08:03:29;2.95;;;0.80;;
24485;SDS011;13449;49.374;8.584;2023-07-20T08:05:56;2.67;;;1.10;;
24485;SDS011;13449;49.374;8.584;2023-07-20T08:08:22;7.53;;;1.00;;
24485;SDS011;13449;49.374;8.584;2023-07-20T08:10:52;5.25;;;1.42;;
24485;SDS011;13449;49.374;8.584;2023-07-20T08:13:20;2.38;;;1.40;;
24485;SDS011;13449;49.374;8.584;2023-07-20T08:15:49;4.60;;;1.50;;
24485;SDS011;13449;49.374;8.584;2023-07-20T08:18:22;3.38;;;1.35;;
24485;SDS011;13449;49.374;8.584;2023-07-20T08:20:51;4.10;;;1.17;;
24485;SDS011;13449;49.374;8.584;2023-07-20T08:23:18;2.40;;;1.00;;
24485;SDS011;13449;49.374;8.584;2023-07-20T08:25:45;1.92;;;1.15;;
24485;SDS011;13449;49.374;8.584;2023-07-20T08:28:13;5.53;;;1.38;;
24485;SDS011;13449;49.374;8.584;2023-07-20T08:30:42;2.58;;;1.10;;
24485;SDS011;13449;49.374;8.584;2023-07-20T08:35:40;3.75;;;1.48;;
24485;SDS011;13449;49.374;8.584;2023-07-20T08:38:06;3.15;;;1.40;;
24485;SDS011;13449;49.374;8.584;2023-07-20T08:40:44;1.25;;;0.90;;
24485;SDS011;13449;49.374;8.584;2023-07-20T08:43:12;3.63;;;1.10;;
24485;SDS011;13449;49.374;8.584;2023-07-20T08:45:40;4.28;;;1.40;;
24485;SDS011;13449;49.374;8.584;2023-07-20T08:48:07;2.20;;;1.08;;
24485;SDS011;13449;49.374;8.584;2023-07-20T08:50:34;2.70;;;1.13;;
24485;SDS011;13449;49.374;8.584;2023-07-20T08:53:02;6.25;;;1.35;;
24485;SDS011;13449;49.374;8.584;2023-07-20T08:55:29;2.13;;;0.80;;
24485;SDS011;13449;49.374;8.584;2023-07-20T08:58:00;4.53;;;1.45;;
24485;SDS011;13449;49.374;8.584;2023-07-20T09:00:34;7.28;;;0.82;;
24485;SDS011;13449;49.374;8.584;2023-07-20T09:03:01;4.45;;;1.02;;
24485;SDS011;13449;49.374;8.584;2023-07-20T09:05:29;3.05;;;0.98;;
24485;SDS011;13449;49.374;8.584;2023-07-20T09:07:58;1.58;;;1.23;;
24485;SDS011;13449;49.374;8.584;2023-07-20T09:10:25;1.15;;;0.85;;
24485;SDS011;13449;49.374;8.584;2023-07-20T09:12:51;4.35;;;1.00;;
24485;SDS011;13449;49.374;8.584;2023-07-20T09:15:18;0.88;;;0.75;;
24485;SDS011;13449;49.374;8.584;2023-07-20T09:17:46;2.00;;;1.70;;
24485;SDS011;13449;49.374;8.584;2023-07-20T09:20:17;3.35;;;1.10;;
24485;SDS011;13449;49.374;8.584;2023-07-20T09:22:50;2.03;;;0.98;;
24485;SDS011;13449;49.374;8.584;2023-07-20T09:25:18;4.40;;;1.58;;
24485;SDS011;13449;49.374;8.584;2023-07-20T09:27:48;6.70;;;1.55;;
24485;SDS011;13449;49.374;8.584;2023-07-20T09:30:18;1.33;;;1.00;;
24485;SDS011;13449;49.374;8.584;2023-07-20T09:32:46;5.10;;;1.20;;
24485;SDS011;13449;49.374;8.584;2023-07-20T09:35:16;13.02;;;0.85;;
24485;SDS011;13449;49.374;8.584;2023-07-20T09:40:28;2.50;;;1.17;;
24485;SDS011;13449;49.374;8.584;2023-07-20T09:42:58;2.20;;;0.90;;
24485;SDS011;13449;49.374;8.584;2023-07-20T09:45:33;5.88;;;1.13;;
24485;SDS011;13449;49.374;8.584;2023-07-20T09:48:03;5.72;;;1.33;;
24485;SDS011;13449;49.374;8.584;2023-07-20T09:50:49;7.72;;;1.67;;
24485;SDS011;13449;49.374;8.584;2023-07-20T09:53:17;2.35;;;1.10;;
24485;SDS011;13449;49.374;8.584;2023-07-20T09:55:49;6.22;;;1.27;;
24485;SDS011;13449;49.374;8.584;2023-07-20T09:58:16;3.03;;;1.63;;
24485;SDS011;13449;49.374;8.584;2023-07-20T10:00:44;1.92;;;1.25;;
24485;SDS011;13449;49.374;8.584;2023-07-20T10:03:19;3.05;;;1.10;;
24485;SDS011;13449;49.374;8.584;2023-07-20T10:05:48;3.00;;;1.63;;
24485;SDS011;13449;49.374;8.584;2023-07-20T10:08:20;4.57;;;3.30;;
24485;SDS011;13449;49.374;8.584;2023-07-20T10:10:54;3.53;;;2.00;;
24485;SDS011;13449;49.374;8.584;2023-07-20T10:13:27;2.67;;;1.08;;
24485;SDS011;13449;49.374;8.584;2023-07-20T10:16:02;2.55;;;1.15;;
24485;SDS011;13449;49.374;8.584;2023-07-20T10:21:47;4.72;;;1.92;;
24485;SDS011;13449;49.374;8.584;2023-07-20T10:24:24;9.65;;;2.50;;
24485;SDS011;13449;49.374;8.584;2023-07-20T10:26:51;7.57;;;2.17;;
24485;SDS011;13449;49.374;8.584;2023-07-20T10:29:23;1.00;;;0.73;;
24485;SDS011;13449;49.374;8.584;2023-07-20T10:31:51;3.75;;;2.10;;
24485;SDS011;13449;49.374;8.584;2023-07-20T10:34:23;3.67;;;0.90;;
24485;SDS011;13449;49.374;8.584;2023-07-20T10:36:52;2.30;;;1.02;;
24485;SDS011;13449;49.374;8.584;2023-07-20T10:39:25;5.25;;;0.88;;
24485;SDS011;13449;49.374;8.584;2023-07-20T10:42:01;0.95;;;0.80;;
24485;SDS011;13449;49.374;8.584;2023-07-20T10:44:28;3.10;;;1.02;;
24485;SDS011;13449;49.374;8.584;2023-07-20T10:47:03;5.30;;;0.88;;
24485;SDS011;13449;49.374;8.584;2023-07-20T10:49:59;6.05;;;1.05;;
24485;SDS011;13449;49.374;8.584;2023-07-20T10:52:36;2.75;;;1.30;;
24485;SDS011;13449;49.374;8.584;2023-07-20T10:55:15;2.35;;;0.88;;
24485;SDS011;13449;49.374;8.584;2023-07-20T10:57:42;3.47;;;1.38;;
24485;SDS011;13449;49.374;8.584;2023-07-20T11:00:12;3.65;;;1.52;;
24485;SDS011;13449;49.374;8.584;2023-07-20T11:02:48;1.02;;;0.90;;
24485;SDS011;13449;49.374;8.584;2023-07-20T11:08:12;5.65;;;1.10;;
24485;SDS011;13449;49.374;8.584;2023-07-20T11:10:39;2.00;;;1.08;;
24485;SDS011;13449;49.374;8.584;2023-07-20T11:13:21;2.35;;;0.80;;
24485;SDS011;13449;49.374;8.584;2023-07-20T11:18:22;7.75;;;1.40;;
24485;SDS011;13449;49.374;8.584;2023-07-20T11:20:51;2.20;;;1.05;;
24485;SDS011;13449;49.374;8.584;2023-07-20T11:23:19;2.10;;;0.70;;
24485;SDS011;13449;49.374;8.584;2023-07-20T11:25:49;4.03;;;1.00;;
24485;SDS011;13449;49.374;8.584;2023-07-20T11:28:16;5.88;;;1.15;;
24485;SDS011;13449;49.374;8.584;2023-07-20T11:30:42;2.50;;;0.82;;
24485;SDS011;13449;49.374;8.584;2023-07-20T11:33:09;2.15;;;0.90;;
24485;SDS011;13449;49.374;8.584;2023-07-20T11:35:36;1.02;;;0.90;;
24485;SDS011;13449;49.374;8.584;2023-07-20T11:38:17;2.85;;;1.08;;
24485;SDS011;13449;49.374;8.584;2023-07-20T11:40:46;4.50;;;1.70;;
24485;SDS011;13449;49.374;8.584;2023-07-20T11:43:13;6.50;;;1.48;;
24485;SDS011;13449;49.374;8.584;2023-07-20T11:45:42;1.30;;;0.82;;
24485;SDS011;13449;49.374;8.584;2023-07-20T11:48:14;2.88;;;0.98;;
24485;SDS011;13449;49.374;8.584;2023-07-20T11:50:44;0.88;;;0.77;;
24485;SDS011;13449;49.374;8.584;2023-07-20T11:53:11;5.65;;;0.95;;
24485;SDS011;13449;49.374;8.584;2023-07-20T11:55:38;1.17;;;0.80;;
24485;SDS011;13449;49.374;8.584;2023-07-20T11:58:07;1.40;;;0.77;;
24485;SDS011;13449;49.374;8.584;2023-07-20T12:00:36;4.50;;;0.98;;
24485;SDS011;13449;49.374;8.584;2023-07-20T12:03:06;4.22;;;1.13;;
24485;SDS011;13449;49.374;8.584;2023-07-20T12:05:34;2.72;;;1.10;;
24485;SDS011;13449;49.374;8.584;2023-07-20T12:08:13;1.50;;;0.98;;
24485;SDS011;13449;49.374;8.584;2023-07-20T12:10:40;1.60;;;1.02;;
24485;SDS011;13449;49.374;8.584;2023-07-20T12:13:09;3.65;;;0.90;;
24485;SDS011;13449;49.374;8.584;2023-07-20T12:15:37;2.75;;;0.63;;
24485;SDS011;13449;49.374;8.584;2023-07-20T12:18:06;2.83;;;1.00;;
24485;SDS011;13449;49.374;8.584;2023-07-20T12:20:35;2.30;;;0.95;;
24485;SDS011;13449;49.374;8.584;2023-07-20T12:23:04;1.00;;;0.85;;
24485;SDS011;13449;49.374;8.584;2023-07-20T12:25:45;1.83;;;0.90;;
24485;SDS011;13449;49.374;8.584;2023-07-20T12:28:17;3.03;;;1.05;;
24485;SDS011;13449;49.374;8.584;2023-07-20T12:30:46;2.50;;;0.80;;
24485;SDS011;13449;49.374;8.584;2023-07-20T12:33:22;9.27;;;1.40;;
24485;SDS011;13449;49.374;8.584;2023-07-20T12:35:49;7.25;;;0.90;;
24485;SDS011;13449;49.374;8.584;2023-07-20T12:38:16;8.52;;;0.70;;
24485;SDS011;13449;49.374;8.584;2023-07-20T12:40:43;1.80;;;0.80;;
24485;SDS011;13449;49.374;8.584;2023-07-20T12:43:09;1.70;;;0.90;;
24485;SDS011;13449;49.374;8.584;2023-07-20T12:45:38;0.77;;;0.77;;
24485;SDS011;13449;49.374;8.584;2023-07-20T12:48:04;2.47;;;1.10;;
24485;SDS011;13449;49.374;8.584;2023-07-20T12:50:31;1.75;;;0.90;;
24485;SDS011;13449;49.374;8.584;2023-07-20T12:52:58;1.83;;;0.80;;
24485;SDS011;13449;49.374;8.584;2023-07-20T12:55:24;1.52;;;0.80;;
24485;SDS011;13449;49.374;8.584;2023-07-20T12:57:51;6.43;;;1.23;;
24485;SDS011;13449;49.374;8.584;2023-07-20T13:00:18;1.67;;;0.80;;
24485;SDS011;13449;49.374;8.584;2023-07-20T13:02:45;1.80;;;0.85;;
24485;SDS011;13449;49.374;8.584;2023-07-20T13:05:14;3.95;;;0.80;;
24485;SDS011;13449;49.374;8.584;2023-07-20T13:08:04;2.28;;;0.70;;
24485;SDS011;13449;49.374;8.584;2023-07-20T13:10:35;1.58;;;1.08;;
24485;SDS011;13449;49.374;8.584;2023-07-20T13:13:01;0.88;;;0.75;;
24485;SDS011;13449;49.374;8.584;2023-07-20T13:15:31;2.17;;;0.90;;
24485;SDS011;13449;49.374;8.584;2023-07-20T13:17:58;2.30;;;0.97;;
24485;SDS011;13449;49.374;8.584;2023-07-20T13:20:30;2.63;;;0.60;;
24485;SDS011;13449;49.374;8.584;2023-07-20T13:22:57;4.75;;;1.23;;
24485;SDS011;13449;49.374;8.584;2023-07-20T13:25:24;3.75;;;1.45;;
24485;SDS011;13449;49.374;8.584;2023-07-20T13:27:51;7.45;;;2.90;;
24485;SDS011;13449;49.374;8.584;2023-07-20T13:30:24;4.10;;;1.00;;
24485;SDS011;13449;49.374;8.584;2023-07-20T13:32:51;1.17;;;0.70;;
24485;SDS011;13449;49.374;8.584;2023-07-20T13:35:19;11.25;;;1.00;;
24485;SDS011;13449;49.374;8.584;2023-07-20T13:37:48;3.33;;;1.40;;
24485;SDS011;13449;49.374;8.584;2023-07-20T13:40:18;2.35;;;1.00;;
24485;SDS011;13449;49.374;8.584;2023-07-20T13:42:45;1.77;;;0.82;;
24485;SDS011;13449;49.374;8.584;2023-07-20T13:45:12;1.80;;;0.70;;
24485;SDS011;13449;49.374;8.584;2023-07-20T13:47:40;2.47;;;0.80;;
24485;SDS011;13449;49.374;8.584;2023-07-20T13:50:10;1.85;;;0.85;;
24485;SDS011;13449;49.374;8.584;2023-07-20T13:52:52;7.22;;;1.00;;
24485;SDS011;13449;49.374;8.584;2023-07-20T13:55:38;11.63;;;1.17;;
24485;SDS011;13449;49.374;8.584;2023-07-20T13:58:08;1.02;;;0.98;;
24485;SDS011;13449;49.374;8.584;2023-07-20T14:00:38;1.95;;;0.80;;
24485;SDS011;13449;49.374;8.584;2023-07-20T14:03:05;6.28;;;0.82;;
24485;SDS011;13449;49.374;8.584;2023-07-20T14:05:34;1.83;;;0.85;;
24485;SDS011;13449;49.374;8.584;2023-07-20T14:08:04;1.05;;;0.63;;
24485;SDS011;13449;49.374;8.584;2023-07-20T14:10:31;1.70;;;0.93;;
24485;SDS011;13449;49.374;8.584;2023-07-20T14:12:58;0.88;;;0.70;;
24485;SDS011;13449;49.374;8.584;2023-07-20T14:15:24;2.25;;;0.98;;
24485;SDS011;13449;49.374;8.584;2023-07-20T14:17:51;1.42;;;0.82;;
24485;SDS011;13449;49.374;8.584;2023-07-20T14:20:19;2.15;;;0.70;;
24485;SDS011;13449;49.374;8.584;2023-07-20T14:22:48;2.15;;;1.38;;
24485;SDS011;13449;49.374;8.584;2023-07-20T14:25:19;3.42;;;1.40;;
24485;SDS011;13449;49.374;8.584;2023-07-20T14:27:48;1.02;;;0.90;;
24485;SDS011;13449;49.374;8.584;2023-07-20T14:30:14;2.30;;;0.80;;
24485;SDS011;13449;49.374;8.584;2023-07-20T14:32:41;3.30;;;0.82;;
24485;SDS011;13449;49.374;8.584;2023-07-20T14:35:08;1.67;;;0.90;;
24485;SDS011;13449;49.374;8.584;2023-07-20T14:37:37;1.73;;;0.77;;
24485;SDS011;13449;49.374;8.584;2023-07-20T14:40:06;1.70;;;0.80;;
24485;SDS011;13449;49.374;8.584;2023-07-20T14:42:34;1.23;;;0.70;;
24485;SDS011;13449;49.374;8.584;2023-07-20T14:45:03;2.20;;;0.93;;
24485;SDS011;13449;49.374;8.584;2023-07-20T14:47:34;2.60;;;1.25;;
24485;SDS011;13449;49.374;8.584;2023-07-20T14:50:02;1.00;;;0.80;;
24485;SDS011;13449;49.374;8.584;2023-07-20T14:52:31;1.90;;;0.90;;
24485;SDS011;13449;49.374;8.584;2023-07-20T14:54:57;2.40;;;0.80;;
24485;SDS011;13449;49.374;8.584;2023-07-20T14:57:24;1.50;;;0.65;;
24485;SDS011;13449;49.374;8.584;2023-07-20T14:59:50;1.10;;;0.82;;
24485;SDS011;13449;49.374;8.584;2023-07-20T15:02:17;5.03;;;1.05;;
24485;SDS011;13449;49.374;8.584;2023-07-20T15:07:15;0.80;;;0.80;;
24485;SDS011;13449;49.374;8.584;2023-07-20T15:09:45;1.30;;;0.68;;
24485;SDS011;13449;49.374;8.584;2023-07-20T15:12:12;0.80;;;0.80;;
24485;SDS011;13449;49.374;8.584;2023-07-20T15:14:39;2.65;;;1.48;;
24485;SDS011;13449;49.374;8.584;2023-07-20T15:17:09;0.70;;;0.70;;